sensor_id;sensor_type;location;lat;lon;timestamp;temperature;humidity
13713;DHT22;6928;50.546;7.120;2023-05-29T00:01:53;15.61;72.87
13713;DHT22;6928;50.546;7.120;2023-05-29T00:04:20;15.62;72.89
13713;DHT22;6928;50.546;7.120;2023-05-29T00:06:47;15.58;72.96
13713;DHT22;6928;50.546;7.120;2023-05-29T00:09:14;15.53;73.18
13713;DHT22;6928;50.546;7.120;2023-05-29T00:11:42;15.49;73.35
13713;DHT22;6928;50.546;7.120;2023-05-29T00:14:09;15.32;73.73
13713;DHT22;6928;50.546;7.120;2023-05-29T00:16:39;15.36;73.66
13713;DHT22;6928;50.546;7.120;2023-05-29T00:19:06;15.44;73.30
13713;DHT22;6928;50.546;7.120;2023-05-29T00:21:34;15.24;74.31
13713;DHT22;6928;50.546;7.120;2023-05-29T00:24:01;15.26;74.12
13713;DHT22;6928;50.546;7.120;2023-05-29T00:26:27;15.23;74.28
13713;DHT22;6928;50.546;7.120;2023-05-29T00:28:55;15.27;74.02
13713;DHT22;6928;50.546;7.120;2023-05-29T00:31:22;15.29;73.96
13713;DHT22;6928;50.546;7.120;2023-05-29T00:33:50;15.09;74.57
13713;DHT22;6928;50.546;7.120;2023-05-29T00:36:16;15.07;74.80
13713;DHT22;6928;50.546;7.120;2023-05-29T00:38:43;15.07;74.66
13713;DHT22;6928;50.546;7.120;2023-05-29T00:41:14;15.00;75.04
13713;DHT22;6928;50.546;7.120;2023-05-29T00:43:41;15.07;74.78
13713;DHT22;6928;50.546;7.120;2023-05-29T00:46:10;15.04;74.78
13713;DHT22;6928;50.546;7.120;2023-05-29T00:48:39;14.99;74.78
13713;DHT22;6928;50.546;7.120;2023-05-29T00:51:07;14.96;74.96
13713;DHT22;6928;50.546;7.120;2023-05-29T00:53:34;14.82;75.43
13713;DHT22;6928;50.546;7.120;2023-05-29T00:56:01;14.82;75.26
13713;DHT22;6928;50.546;7.120;2023-05-29T00:58:30;14.81;75.86
13713;DHT22;6928;50.546;7.120;2023-05-29T01:00:57;14.72;75.88
13713;DHT22;6928;50.546;7.120;2023-05-29T01:03:25;14.82;75.40
13713;DHT22;6928;50.546;7.120;2023-05-29T01:05:53;14.64;76.13
13713;DHT22;6928;50.546;7.120;2023-05-29T01:08:21;14.57;76.44
13713;DHT22;6928;50.546;7.120;2023-05-29T01:10:51;14.48;76.97
13713;DHT22;6928;50.546;7.120;2023-05-29T01:13:28;14.67;76.08
13713;DHT22;6928;50.546;7.120;2023-05-29T01:16:00;14.55;76.60
13713;DHT22;6928;50.546;7.120;2023-05-29T01:18:41;14.64;76.29
13713;DHT22;6928;50.546;7.120;2023-05-29T01:21:18;14.44;77.04
13713;DHT22;6928;50.546;7.120;2023-05-29T01:23:56;14.55;76.63
13713;DHT22;6928;50.546;7.120;2023-05-29T01:26:51;14.42;76.99
13713;DHT22;6928;50.546;7.120;2023-05-29T01:29:20;14.40;77.23
13713;DHT22;6928;50.546;7.120;2023-05-29T01:31:50;14.47;76.86
13713;DHT22;6928;50.546;7.120;2023-05-29T01:34:18;14.41;77.13
13713;DHT22;6928;50.546;7.120;2023-05-29T01:36:45;14.50;76.52
13713;DHT22;6928;50.546;7.120;2023-05-29T01:39:12;14.34;77.20
13713;DHT22;6928;50.546;7.120;2023-05-29T01:41:40;14.31;77.10
13713;DHT22;6928;50.546;7.120;2023-05-29T01:44:09;14.23;77.71
13713;DHT22;6928;50.546;7.120;2023-05-29T01:46:37;14.20;77.80
13713;DHT22;6928;50.546;7.120;2023-05-29T01:49:04;14.18;77.81
13713;DHT22;6928;50.546;7.120;2023-05-29T01:51:32;14.03;78.33
13713;DHT22;6928;50.546;7.120;2023-05-29T01:53:59;14.13;77.91
13713;DHT22;6928;50.546;7.120;2023-05-29T01:56:27;14.24;77.56
13713;DHT22;6928;50.546;7.120;2023-05-29T01:58:55;14.00;78.07
13713;DHT22;6928;50.546;7.120;2023-05-29T02:01:23;14.04;78.29
13713;DHT22;6928;50.546;7.120;2023-05-29T02:03:51;14.06;78.16
13713;DHT22;6928;50.546;7.120;2023-05-29T02:06:18;14.10;77.67
13713;DHT22;6928;50.546;7.120;2023-05-29T02:08:45;13.96;78.49
13713;DHT22;6928;50.546;7.120;2023-05-29T02:11:12;13.90;78.73
13713;DHT22;6928;50.546;7.120;2023-05-29T02:13:39;13.92;78.70
13713;DHT22;6928;50.546;7.120;2023-05-29T02:16:06;13.93;78.90
13713;DHT22;6928;50.546;7.120;2023-05-29T02:18:34;13.92;78.66
13713;DHT22;6928;50.546;7.120;2023-05-29T02:21:01;13.86;78.94
13713;DHT22;6928;50.546;7.120;2023-05-29T02:23:28;13.78;79.27
13713;DHT22;6928;50.546;7.120;2023-05-29T02:25:55;13.71;79.57
13713;DHT22;6928;50.546;7.120;2023-05-29T02:28:22;13.72;79.30
13713;DHT22;6928;50.546;7.120;2023-05-29T02:30:50;13.65;79.76
13713;DHT22;6928;50.546;7.120;2023-05-29T02:33:17;13.75;79.27
13713;DHT22;6928;50.546;7.120;2023-05-29T02:35:45;13.79;79.05
13713;DHT22;6928;50.546;7.120;2023-05-29T02:38:12;13.59;79.62
13713;DHT22;6928;50.546;7.120;2023-05-29T02:40:39;13.65;79.63
13713;DHT22;6928;50.546;7.120;2023-05-29T02:43:07;13.55;79.91
13713;DHT22;6928;50.546;7.120;2023-05-29T02:45:34;13.48;80.10
13713;DHT22;6928;50.546;7.120;2023-05-29T02:48:01;13.54;79.93
13713;DHT22;6928;50.546;7.120;2023-05-29T02:50:29;13.73;79.56
13713;DHT22;6928;50.546;7.120;2023-05-29T02:52:57;13.34;80.56
13713;DHT22;6928;50.546;7.120;2023-05-29T02:55:24;13.49;80.38
13713;DHT22;6928;50.546;7.120;2023-05-29T02:57:50;13.66;79.76
13713;DHT22;6928;50.546;7.120;2023-05-29T03:00:20;13.72;79.44
13713;DHT22;6928;50.546;7.120;2023-05-29T03:02:47;13.48;80.38
13713;DHT22;6928;50.546;7.120;2023-05-29T03:05:14;13.65;79.51
13713;DHT22;6928;50.546;7.120;2023-05-29T03:07:42;13.66;79.56
13713;DHT22;6928;50.546;7.120;2023-05-29T03:10:10;13.59;79.66
13713;DHT22;6928;50.546;7.120;2023-05-29T03:12:37;13.56;79.97
13713;DHT22;6928;50.546;7.120;2023-05-29T03:15:06;13.65;79.58
13713;DHT22;6928;50.546;7.120;2023-05-29T03:17:33;13.58;79.89
13713;DHT22;6928;50.546;7.120;2023-05-29T03:20:02;13.52;79.95
13713;DHT22;6928;50.546;7.120;2023-05-29T03:22:33;13.58;80.05
13713;DHT22;6928;50.546;7.120;2023-05-29T03:25:02;13.52;80.22
13713;DHT22;6928;50.546;7.120;2023-05-29T03:27:31;13.54;80.19
13713;DHT22;6928;50.546;7.120;2023-05-29T03:29:58;13.67;79.54
13713;DHT22;6928;50.546;7.120;2023-05-29T03:32:25;13.62;79.59
13713;DHT22;6928;50.546;7.120;2023-05-29T03:34:52;13.54;80.07
13713;DHT22;6928;50.546;7.120;2023-05-29T03:37:19;13.52;80.23
13713;DHT22;6928;50.546;7.120;2023-05-29T03:39:45;13.66;79.79
13713;DHT22;6928;50.546;7.120;2023-05-29T03:42:13;13.55;79.82
13713;DHT22;6928;50.546;7.120;2023-05-29T03:44:41;13.58;79.78
13713;DHT22;6928;50.546;7.120;2023-05-29T03:47:08;13.27;80.80
13713;DHT22;6928;50.546;7.120;2023-05-29T03:49:35;13.58;79.94
13713;DHT22;6928;50.546;7.120;2023-05-29T03:52:02;13.51;79.87
13713;DHT22;6928;50.546;7.120;2023-05-29T03:54:29;13.39;80.16
13713;DHT22;6928;50.546;7.120;2023-05-29T03:56:55;13.41;80.13
13713;DHT22;6928;50.546;7.120;2023-05-29T03:59:22;13.41;80.00
13713;DHT22;6928;50.546;7.120;2023-05-29T04:01:50;13.38;79.94
13713;DHT22;6928;50.546;7.120;2023-05-29T04:04:17;13.30;80.31
13713;DHT22;6928;50.546;7.120;2023-05-29T04:06:44;13.35;80.13
13713;DHT22;6928;50.546;7.120;2023-05-29T04:09:10;13.44;80.03
13713;DHT22;6928;50.546;7.120;2023-05-29T04:11:37;13.36;79.92
13713;DHT22;6928;50.546;7.120;2023-05-29T04:14:04;13.34;80.00
13713;DHT22;6928;50.546;7.120;2023-05-29T04:16:31;13.39;79.97
13713;DHT22;6928;50.546;7.120;2023-05-29T04:18:59;13.32;80.03
13713;DHT22;6928;50.546;7.120;2023-05-29T04:21:26;13.32;79.73
13713;DHT22;6928;50.546;7.120;2023-05-29T04:23:53;13.35;79.62
13713;DHT22;6928;50.546;7.120;2023-05-29T04:26:21;13.46;79.45
13713;DHT22;6928;50.546;7.120;2023-05-29T04:28:52;13.46;79.31
13713;DHT22;6928;50.546;7.120;2023-05-29T04:31:22;13.23;79.70
13713;DHT22;6928;50.546;7.120;2023-05-29T04:33:51;13.39;79.42
13713;DHT22;6928;50.546;7.120;2023-05-29T04:36:22;13.38;79.52
13713;DHT22;6928;50.546;7.120;2023-05-29T04:38:52;13.58;78.51
13713;DHT22;6928;50.546;7.120;2023-05-29T04:41:19;13.52;78.60
13713;DHT22;6928;50.546;7.120;2023-05-29T04:43:49;13.49;78.43
13713;DHT22;6928;50.546;7.120;2023-05-29T04:46:17;13.45;78.52
13713;DHT22;6928;50.546;7.120;2023-05-29T04:48:44;13.42;78.93
13713;DHT22;6928;50.546;7.120;2023-05-29T04:51:11;13.54;78.17
13713;DHT22;6928;50.546;7.120;2023-05-29T04:53:40;13.41;78.26
13713;DHT22;6928;50.546;7.120;2023-05-29T04:56:07;13.41;78.79
13713;DHT22;6928;50.546;7.120;2023-05-29T04:58:34;13.46;78.49
13713;DHT22;6928;50.546;7.120;2023-05-29T05:01:01;13.31;78.48
13713;DHT22;6928;50.546;7.120;2023-05-29T05:03:29;13.49;77.95
13713;DHT22;6928;50.546;7.120;2023-05-29T05:05:59;13.44;78.13
13713;DHT22;6928;50.546;7.120;2023-05-29T05:08:27;13.31;78.82
13713;DHT22;6928;50.546;7.120;2023-05-29T05:10:57;13.46;78.12
13713;DHT22;6928;50.546;7.120;2023-05-29T05:13:24;13.52;77.77
13713;DHT22;6928;50.546;7.120;2023-05-29T05:15:51;13.42;78.56
13713;DHT22;6928;50.546;7.120;2023-05-29T05:18:18;13.38;78.05
13713;DHT22;6928;50.546;7.120;2023-05-29T05:20:46;13.49;77.98
13713;DHT22;6928;50.546;7.120;2023-05-29T05:23:13;13.44;78.27
13713;DHT22;6928;50.546;7.120;2023-05-29T05:25:40;13.41;78.04
13713;DHT22;6928;50.546;7.120;2023-05-29T05:28:08;13.49;77.87
13713;DHT22;6928;50.546;7.120;2023-05-29T05:30:35;13.52;77.90
13713;DHT22;6928;50.546;7.120;2023-05-29T05:33:02;13.63;77.33
13713;DHT22;6928;50.546;7.120;2023-05-29T05:35:29;13.67;77.74
13713;DHT22;6928;50.546;7.120;2023-05-29T05:37:56;13.58;77.71
13713;DHT22;6928;50.546;7.120;2023-05-29T05:40:24;13.61;78.10
13713;DHT22;6928;50.546;7.120;2023-05-29T05:42:51;13.66;77.68
13713;DHT22;6928;50.546;7.120;2023-05-29T05:45:19;13.54;77.73
13713;DHT22;6928;50.546;7.120;2023-05-29T05:47:46;13.71;77.67
13713;DHT22;6928;50.546;7.120;2023-05-29T05:50:14;13.52;77.82
13713;DHT22;6928;50.546;7.120;2023-05-29T05:52:41;13.66;77.69
13713;DHT22;6928;50.546;7.120;2023-05-29T05:55:08;13.48;77.63
13713;DHT22;6928;50.546;7.120;2023-05-29T05:57:35;13.61;77.71
13713;DHT22;6928;50.546;7.120;2023-05-29T06:00:03;13.78;77.30
13713;DHT22;6928;50.546;7.120;2023-05-29T06:02:33;13.71;77.33
13713;DHT22;6928;50.546;7.120;2023-05-29T06:05:00;13.75;77.60
13713;DHT22;6928;50.546;7.120;2023-05-29T06:07:28;13.63;77.44
13713;DHT22;6928;50.546;7.120;2023-05-29T06:09:54;13.87;77.27
13713;DHT22;6928;50.546;7.120;2023-05-29T06:12:21;14.02;77.42
13713;DHT22;6928;50.546;7.120;2023-05-29T06:14:48;13.97;77.02
13713;DHT22;6928;50.546;7.120;2023-05-29T06:17:15;13.82;77.33
13713;DHT22;6928;50.546;7.120;2023-05-29T06:19:44;14.02;76.94
13713;DHT22;6928;50.546;7.120;2023-05-29T06:22:11;14.06;76.98
13713;DHT22;6928;50.546;7.120;2023-05-29T06:24:38;14.14;77.19
13713;DHT22;6928;50.546;7.120;2023-05-29T06:27:05;14.34;77.30
13713;DHT22;6928;50.546;7.120;2023-05-29T06:29:32;14.07;76.77
13713;DHT22;6928;50.546;7.120;2023-05-29T06:31:58;14.12;77.19
13713;DHT22;6928;50.546;7.120;2023-05-29T06:34:25;14.09;76.97
13713;DHT22;6928;50.546;7.120;2023-05-29T06:36:54;14.12;77.31
13713;DHT22;6928;50.546;7.120;2023-05-29T06:39:28;14.27;76.99
13713;DHT22;6928;50.546;7.120;2023-05-29T06:41:55;14.31;76.62
13713;DHT22;6928;50.546;7.120;2023-05-29T06:44:26;14.47;76.29
13713;DHT22;6928;50.546;7.120;2023-05-29T06:46:54;14.34;76.37
13713;DHT22;6928;50.546;7.120;2023-05-29T06:49:30;14.45;76.68
13713;DHT22;6928;50.546;7.120;2023-05-29T06:52:07;14.20;76.80
13713;DHT22;6928;50.546;7.120;2023-05-29T06:54:34;14.41;76.72
13713;DHT22;6928;50.546;7.120;2023-05-29T06:57:00;14.48;76.51
13713;DHT22;6928;50.546;7.120;2023-05-29T06:59:27;14.69;76.20
13713;DHT22;6928;50.546;7.120;2023-05-29T07:01:54;14.76;76.30
13713;DHT22;6928;50.546;7.120;2023-05-29T07:04:21;14.53;76.51
13713;DHT22;6928;50.546;7.120;2023-05-29T07:06:48;14.67;75.92
13713;DHT22;6928;50.546;7.120;2023-05-29T07:09:16;14.86;75.35
13713;DHT22;6928;50.546;7.120;2023-05-29T07:11:43;14.89;75.59
13713;DHT22;6928;50.546;7.120;2023-05-29T07:14:10;14.98;75.36
13713;DHT22;6928;50.546;7.120;2023-05-29T07:16:38;15.17;75.55
13713;DHT22;6928;50.546;7.120;2023-05-29T07:19:04;15.39;74.98
13713;DHT22;6928;50.546;7.120;2023-05-29T07:21:31;15.29;74.74
13713;DHT22;6928;50.546;7.120;2023-05-29T07:23:59;15.40;74.61
13713;DHT22;6928;50.546;7.120;2023-05-29T07:26:27;15.37;74.79
13713;DHT22;6928;50.546;7.120;2023-05-29T07:28:57;15.37;74.34
13713;DHT22;6928;50.546;7.120;2023-05-29T07:31:24;15.37;74.61
13713;DHT22;6928;50.546;7.120;2023-05-29T07:33:51;15.64;73.76
13713;DHT22;6928;50.546;7.120;2023-05-29T07:36:18;15.78;73.85
13713;DHT22;6928;50.546;7.120;2023-05-29T07:38:44;15.47;74.07
13713;DHT22;6928;50.546;7.120;2023-05-29T07:41:11;15.79;73.73
13713;DHT22;6928;50.546;7.120;2023-05-29T07:43:39;15.75;73.69
13713;DHT22;6928;50.546;7.120;2023-05-29T07:46:06;15.71;73.56
13713;DHT22;6928;50.546;7.120;2023-05-29T07:48:35;15.89;73.28
13713;DHT22;6928;50.546;7.120;2023-05-29T07:51:02;16.04;73.57
13713;DHT22;6928;50.546;7.120;2023-05-29T07:53:30;16.06;72.60
13713;DHT22;6928;50.546;7.120;2023-05-29T07:56:11;16.26;72.07
13713;DHT22;6928;50.546;7.120;2023-05-29T07:58:40;16.15;72.55
13713;DHT22;6928;50.546;7.120;2023-05-29T08:01:07;16.57;71.22
13713;DHT22;6928;50.546;7.120;2023-05-29T08:03:34;16.11;72.04
13713;DHT22;6928;50.546;7.120;2023-05-29T08:06:01;16.19;72.20
13713;DHT22;6928;50.546;7.120;2023-05-29T08:08:28;16.64;71.76
13713;DHT22;6928;50.546;7.120;2023-05-29T08:10:55;16.50;71.15
13713;DHT22;6928;50.546;7.120;2023-05-29T08:13:22;16.20;71.54
13713;DHT22;6928;50.546;7.120;2023-05-29T08:15:50;16.54;71.06
13713;DHT22;6928;50.546;7.120;2023-05-29T08:18:17;16.43;70.78
13713;DHT22;6928;50.546;7.120;2023-05-29T08:20:44;16.67;70.83
13713;DHT22;6928;50.546;7.120;2023-05-29T08:23:11;16.60;71.32
13713;DHT22;6928;50.546;7.120;2023-05-29T08:25:37;16.67;70.53
13713;DHT22;6928;50.546;7.120;2023-05-29T08:28:04;16.75;70.98
13713;DHT22;6928;50.546;7.120;2023-05-29T08:30:31;17.09;71.12
13713;DHT22;6928;50.546;7.120;2023-05-29T08:32:59;17.11;69.71
13713;DHT22;6928;50.546;7.120;2023-05-29T08:35:26;17.18;69.61
13713;DHT22;6928;50.546;7.120;2023-05-29T08:37:52;16.77;69.82
13713;DHT22;6928;50.546;7.120;2023-05-29T08:40:19;17.21;69.96
13713;DHT22;6928;50.546;7.120;2023-05-29T08:42:50;17.43;69.85
13713;DHT22;6928;50.546;7.120;2023-05-29T08:45:18;16.98;69.78
13713;DHT22;6928;50.546;7.120;2023-05-29T08:47:52;17.19;70.07
13713;DHT22;6928;50.546;7.120;2023-05-29T08:50:21;17.60;68.89
13713;DHT22;6928;50.546;7.120;2023-05-29T08:52:49;17.54;68.80
13713;DHT22;6928;50.546;7.120;2023-05-29T08:55:16;17.59;68.86
13713;DHT22;6928;50.546;7.120;2023-05-29T08:57:43;17.22;69.41
13713;DHT22;6928;50.546;7.120;2023-05-29T09:00:12;17.73;69.45
13713;DHT22;6928;50.546;7.120;2023-05-29T09:02:39;17.84;68.56
13713;DHT22;6928;50.546;7.120;2023-05-29T09:05:07;17.76;68.64
13713;DHT22;6928;50.546;7.120;2023-05-29T09:07:36;17.96;67.85
13713;DHT22;6928;50.546;7.120;2023-05-29T09:10:05;17.89;68.09
13713;DHT22;6928;50.546;7.120;2023-05-29T09:12:32;18.18;68.02
13713;DHT22;6928;50.546;7.120;2023-05-29T09:14:59;18.05;68.25
13713;DHT22;6928;50.546;7.120;2023-05-29T09:17:31;18.22;67.77
13713;DHT22;6928;50.546;7.120;2023-05-29T09:19:59;18.32;67.26
13713;DHT22;6928;50.546;7.120;2023-05-29T09:22:26;18.47;66.92
13713;DHT22;6928;50.546;7.120;2023-05-29T09:24:54;18.41;67.12
13713;DHT22;6928;50.546;7.120;2023-05-29T09:27:22;18.72;67.86
13713;DHT22;6928;50.546;7.120;2023-05-29T09:29:48;18.62;66.57
13713;DHT22;6928;50.546;7.120;2023-05-29T09:32:17;18.91;66.16
13713;DHT22;6928;50.546;7.120;2023-05-29T09:34:44;18.94;64.78
13713;DHT22;6928;50.546;7.120;2023-05-29T09:37:12;18.83;66.16
13713;DHT22;6928;50.546;7.120;2023-05-29T09:39:45;19.17;65.10
13713;DHT22;6928;50.546;7.120;2023-05-29T09:42:14;19.30;65.09
13713;DHT22;6928;50.546;7.120;2023-05-29T09:44:42;19.38;64.62
13713;DHT22;6928;50.546;7.120;2023-05-29T09:47:09;19.04;65.35
13713;DHT22;6928;50.546;7.120;2023-05-29T09:49:41;19.44;64.34
13713;DHT22;6928;50.546;7.120;2023-05-29T09:52:10;19.17;64.46
13713;DHT22;6928;50.546;7.120;2023-05-29T09:54:39;19.35;65.68
13713;DHT22;6928;50.546;7.120;2023-05-29T09:57:08;19.73;63.80
13713;DHT22;6928;50.546;7.120;2023-05-29T09:59:37;19.35;62.02
13713;DHT22;6928;50.546;7.120;2023-05-29T10:02:05;19.75;61.32
13713;DHT22;6928;50.546;7.120;2023-05-29T10:04:37;19.62;61.01
13713;DHT22;6928;50.546;7.120;2023-05-29T10:07:09;19.54;61.52
13713;DHT22;6928;50.546;7.120;2023-05-29T10:09:41;19.66;61.70
13713;DHT22;6928;50.546;7.120;2023-05-29T10:12:11;19.79;61.39
13713;DHT22;6928;50.546;7.120;2023-05-29T10:14:49;19.89;60.10
13713;DHT22;6928;50.546;7.120;2023-05-29T10:17:19;20.41;59.80
13713;DHT22;6928;50.546;7.120;2023-05-29T10:19:50;19.97;59.44
13713;DHT22;6928;50.546;7.120;2023-05-29T10:22:20;20.28;59.66
13713;DHT22;6928;50.546;7.120;2023-05-29T10:24:49;20.02;59.83
13713;DHT22;6928;50.546;7.120;2023-05-29T10:27:17;19.99;59.54
13713;DHT22;6928;50.546;7.120;2023-05-29T10:29:52;20.18;58.63
13713;DHT22;6928;50.546;7.120;2023-05-29T10:32:23;20.21;59.39
13713;DHT22;6928;50.546;7.120;2023-05-29T10:35:03;20.31;59.59
13713;DHT22;6928;50.546;7.120;2023-05-29T10:37:37;20.99;58.41
13713;DHT22;6928;50.546;7.120;2023-05-29T10:40:09;20.85;58.22
13713;DHT22;6928;50.546;7.120;2023-05-29T10:42:45;20.88;58.78
13713;DHT22;6928;50.546;7.120;2023-05-29T10:45:56;20.68;58.09
13713;DHT22;6928;50.546;7.120;2023-05-29T10:48:42;20.92;57.41
13713;DHT22;6928;50.546;7.120;2023-05-29T10:51:25;20.91;56.61
13713;DHT22;6928;50.546;7.120;2023-05-29T10:53:52;21.24;57.26
13713;DHT22;6928;50.546;7.120;2023-05-29T10:56:28;21.12;56.97
13713;DHT22;6928;50.546;7.120;2023-05-29T10:58:58;21.30;56.08
13713;DHT22;6928;50.546;7.120;2023-05-29T11:01:29;21.51;56.09
13713;DHT22;6928;50.546;7.120;2023-05-29T11:04:29;21.43;56.44
13713;DHT22;6928;50.546;7.120;2023-05-29T11:06:58;21.29;55.14
13713;DHT22;6928;50.546;7.120;2023-05-29T11:09:28;21.95;54.43
13713;DHT22;6928;50.546;7.120;2023-05-29T11:12:15;21.27;55.47
13713;DHT22;6928;50.546;7.120;2023-05-29T11:14:59;21.51;55.82
13713;DHT22;6928;50.546;7.120;2023-05-29T11:17:45;21.85;57.46
13713;DHT22;6928;50.546;7.120;2023-05-29T11:20:27;21.61;55.56
13713;DHT22;6928;50.546;7.120;2023-05-29T11:23:02;21.67;56.28
13713;DHT22;6928;50.546;7.120;2023-05-29T11:25:33;21.90;55.43
13713;DHT22;6928;50.546;7.120;2023-05-29T11:28:01;21.61;55.64
13713;DHT22;6928;50.546;7.120;2023-05-29T11:30:29;21.75;55.94
13713;DHT22;6928;50.546;7.120;2023-05-29T11:33:01;21.95;55.64
13713;DHT22;6928;50.546;7.120;2023-05-29T11:35:31;21.78;56.25
13713;DHT22;6928;50.546;7.120;2023-05-29T11:38:01;21.63;54.82
13713;DHT22;6928;50.546;7.120;2023-05-29T11:40:28;22.08;53.74
13713;DHT22;6928;50.546;7.120;2023-05-29T11:42:55;21.85;54.86
13713;DHT22;6928;50.546;7.120;2023-05-29T11:45:22;22.63;54.66
13713;DHT22;6928;50.546;7.120;2023-05-29T11:47:54;22.28;54.22
13713;DHT22;6928;50.546;7.120;2023-05-29T11:50:24;22.11;54.72
13713;DHT22;6928;50.546;7.120;2023-05-29T11:52:51;21.87;54.43
13713;DHT22;6928;50.546;7.120;2023-05-29T11:55:18;22.26;55.39
13713;DHT22;6928;50.546;7.120;2023-05-29T11:57:46;22.50;53.88
13713;DHT22;6928;50.546;7.120;2023-05-29T12:00:14;22.55;54.24
13713;DHT22;6928;50.546;7.120;2023-05-29T12:02:41;22.62;54.38
13713;DHT22;6928;50.546;7.120;2023-05-29T12:05:09;22.37;55.49
13713;DHT22;6928;50.546;7.120;2023-05-29T12:07:47;22.95;54.43
13713;DHT22;6928;50.546;7.120;2023-05-29T12:10:16;22.87;53.91
13713;DHT22;6928;50.546;7.120;2023-05-29T12:12:49;22.28;55.25
13713;DHT22;6928;50.546;7.120;2023-05-29T12:15:19;22.33;55.02
13713;DHT22;6928;50.546;7.120;2023-05-29T12:17:48;22.69;54.74
13713;DHT22;6928;50.546;7.120;2023-05-29T12:20:16;22.71;54.52
13713;DHT22;6928;50.546;7.120;2023-05-29T12:22:45;22.37;54.08
13713;DHT22;6928;50.546;7.120;2023-05-29T12:25:15;22.98;53.27
13713;DHT22;6928;50.546;7.120;2023-05-29T12:27:43;22.83;55.01
13713;DHT22;6928;50.546;7.120;2023-05-29T12:30:23;22.44;54.53
13713;DHT22;6928;50.546;7.120;2023-05-29T12:32:52;23.01;54.12
13713;DHT22;6928;50.546;7.120;2023-05-29T12:35:21;23.21;52.96
13713;DHT22;6928;50.546;7.120;2023-05-29T12:37:54;22.80;54.52
13713;DHT22;6928;50.546;7.120;2023-05-29T12:40:23;23.20;54.02
13713;DHT22;6928;50.546;7.120;2023-05-29T12:42:54;22.87;54.56
13713;DHT22;6928;50.546;7.120;2023-05-29T12:45:24;22.94;53.97
13713;DHT22;6928;50.546;7.120;2023-05-29T12:47:54;22.62;54.61
13713;DHT22;6928;50.546;7.120;2023-05-29T12:50:25;22.71;54.96
13713;DHT22;6928;50.546;7.120;2023-05-29T12:53:02;22.67;54.60
13713;DHT22;6928;50.546;7.120;2023-05-29T12:55:31;22.88;54.52
13713;DHT22;6928;50.546;7.120;2023-05-29T12:58:03;22.40;54.26
13713;DHT22;6928;50.546;7.120;2023-05-29T13:00:33;22.64;53.89
13713;DHT22;6928;50.546;7.120;2023-05-29T13:03:01;22.52;54.35
13713;DHT22;6928;50.546;7.120;2023-05-29T13:05:29;22.40;54.46
13713;DHT22;6928;50.546;7.120;2023-05-29T13:07:56;22.56;53.79
13713;DHT22;6928;50.546;7.120;2023-05-29T13:10:25;22.84;54.16
13713;DHT22;6928;50.546;7.120;2023-05-29T13:12:53;22.86;54.28
13713;DHT22;6928;50.546;7.120;2023-05-29T13:15:22;23.02;54.08
13713;DHT22;6928;50.546;7.120;2023-05-29T13:17:49;22.83;53.91
13713;DHT22;6928;50.546;7.120;2023-05-29T13:20:17;22.94;54.40
13713;DHT22;6928;50.546;7.120;2023-05-29T13:22:46;22.90;54.00
13713;DHT22;6928;50.546;7.120;2023-05-29T13:25:15;22.98;53.99
13713;DHT22;6928;50.546;7.120;2023-05-29T13:27:45;22.83;54.01
13713;DHT22;6928;50.546;7.120;2023-05-29T13:30:15;22.97;54.47
13713;DHT22;6928;50.546;7.120;2023-05-29T13:32:42;22.80;53.92
13713;DHT22;6928;50.546;7.120;2023-05-29T13:35:09;23.38;55.20
13713;DHT22;6928;50.546;7.120;2023-05-29T13:37:36;23.17;53.44
13713;DHT22;6928;50.546;7.120;2023-05-29T13:40:04;22.97;54.30
13713;DHT22;6928;50.546;7.120;2023-05-29T13:42:31;23.14;53.40
13713;DHT22;6928;50.546;7.120;2023-05-29T13:44:59;23.22;53.23
13713;DHT22;6928;50.546;7.120;2023-05-29T13:47:26;23.42;53.18
13713;DHT22;6928;50.546;7.120;2023-05-29T13:49:54;23.17;53.47
13713;DHT22;6928;50.546;7.120;2023-05-29T13:52:21;23.14;53.45
13713;DHT22;6928;50.546;7.120;2023-05-29T13:54:48;23.14;53.21
13713;DHT22;6928;50.546;7.120;2023-05-29T13:57:15;23.21;53.17
13713;DHT22;6928;50.546;7.120;2023-05-29T13:59:41;22.97;53.96
13713;DHT22;6928;50.546;7.120;2023-05-29T14:02:10;23.01;53.26
13713;DHT22;6928;50.546;7.120;2023-05-29T14:04:39;23.04;53.81
13713;DHT22;6928;50.546;7.120;2023-05-29T14:07:08;23.38;53.01
13713;DHT22;6928;50.546;7.120;2023-05-29T14:09:34;23.32;53.01
13713;DHT22;6928;50.546;7.120;2023-05-29T14:12:01;23.22;52.63
13713;DHT22;6928;50.546;7.120;2023-05-29T14:14:28;23.24;53.76
13713;DHT22;6928;50.546;7.120;2023-05-29T14:16:55;23.66;53.11
13713;DHT22;6928;50.546;7.120;2023-05-29T14:19:23;23.25;53.06
13713;DHT22;6928;50.546;7.120;2023-05-29T14:21:50;23.00;53.18
13713;DHT22;6928;50.546;7.120;2023-05-29T14:24:17;23.00;52.90
13713;DHT22;6928;50.546;7.120;2023-05-29T14:26:44;23.11;52.54
13713;DHT22;6928;50.546;7.120;2023-05-29T14:29:13;23.04;53.45
13713;DHT22;6928;50.546;7.120;2023-05-29T14:31:40;23.32;52.96
13713;DHT22;6928;50.546;7.120;2023-05-29T14:34:07;23.00;53.00
13713;DHT22;6928;50.546;7.120;2023-05-29T14:36:35;23.43;52.37
13713;DHT22;6928;50.546;7.120;2023-05-29T14:39:02;22.91;52.24
13713;DHT22;6928;50.546;7.120;2023-05-29T14:41:29;22.56;52.54
13713;DHT22;6928;50.546;7.120;2023-05-29T14:43:56;22.77;52.59
13713;DHT22;6928;50.546;7.120;2023-05-29T14:46:24;22.94;52.07
13713;DHT22;6928;50.546;7.120;2023-05-29T14:48:51;22.76;52.61
13713;DHT22;6928;50.546;7.120;2023-05-29T14:51:19;23.01;52.31
13713;DHT22;6928;50.546;7.120;2023-05-29T14:53:48;23.24;52.73
13713;DHT22;6928;50.546;7.120;2023-05-29T14:56:14;22.80;52.80
13713;DHT22;6928;50.546;7.120;2023-05-29T14:58:43;22.97;52.86
13713;DHT22;6928;50.546;7.120;2023-05-29T15:01:10;22.90;53.17
13713;DHT22;6928;50.546;7.120;2023-05-29T15:03:37;23.07;52.99
13713;DHT22;6928;50.546;7.120;2023-05-29T15:06:05;22.84;52.70
13713;DHT22;6928;50.546;7.120;2023-05-29T15:08:33;22.94;52.06
13713;DHT22;6928;50.546;7.120;2023-05-29T15:11:02;22.84;52.47
13713;DHT22;6928;50.546;7.120;2023-05-29T15:13:29;22.90;52.48
13713;DHT22;6928;50.546;7.120;2023-05-29T15:15:56;23.01;51.78
13713;DHT22;6928;50.546;7.120;2023-05-29T15:18:25;23.00;52.56
13713;DHT22;6928;50.546;7.120;2023-05-29T15:20:52;23.58;51.00
13713;DHT22;6928;50.546;7.120;2023-05-29T15:23:19;22.77;52.18
13713;DHT22;6928;50.546;7.120;2023-05-29T15:25:48;22.76;52.48
13713;DHT22;6928;50.546;7.120;2023-05-29T15:28:16;22.69;52.22
13713;DHT22;6928;50.546;7.120;2023-05-29T15:30:43;22.73;51.72
13713;DHT22;6928;50.546;7.120;2023-05-29T15:33:10;22.63;52.01
13713;DHT22;6928;50.546;7.120;2023-05-29T15:35:37;22.73;52.40
13713;DHT22;6928;50.546;7.120;2023-05-29T15:38:04;22.91;52.47
13713;DHT22;6928;50.546;7.120;2023-05-29T15:40:31;22.74;52.20
13713;DHT22;6928;50.546;7.120;2023-05-29T15:42:58;22.76;52.50
13713;DHT22;6928;50.546;7.120;2023-05-29T15:45:26;22.69;51.73
13713;DHT22;6928;50.546;7.120;2023-05-29T15:47:53;22.42;52.20
13713;DHT22;6928;50.546;7.120;2023-05-29T15:50:20;22.64;51.78
13713;DHT22;6928;50.546;7.120;2023-05-29T15:52:47;22.37;51.83
13713;DHT22;6928;50.546;7.120;2023-05-29T15:55:15;22.46;52.10